sensor_id;sensor_type;location;lat;lon;timestamp;P1;durP1;ratioP1;P2;durP2;ratioP2
2061;SDS011;11070;51.336;12.340;2022-10-16T00:01:10;2.03;;;1.50;;
2061;SDS011;11070;51.336;12.340;2022-10-16T00:03:38;2.10;;;1.90;;
2061;SDS011;11070;51.336;12.340;2022-10-16T00:06:05;1.88;;;1.77;;
2061;SDS011;11070;51.336;12.340;2022-10-16T00:08:32;1.83;;;1.73;;
2061;SDS011;11070;51.336;12.340;2022-10-16T00:11:17;2.00;;;1.90;;
2061;SDS011;11070;51.336;12.340;2022-10-16T00:13:49;2.63;;;1.40;;
2061;SDS011;11070;51.336;12.340;2022-10-16T00:16:16;1.67;;;1.58;;
2061;SDS011;11070;51.336;12.340;2022-10-16T00:18:42;1.90;;;1.75;;
2061;SDS011;11070;51.336;12.340;2022-10-16T00:23:36;2.13;;;2.00;;
2061;SDS011;11070;51.336;12.340;2022-10-16T00:26:03;2.55;;;2.20;;
2061;SDS011;11070;51.336;12.340;2022-10-16T00:28:30;1.80;;;1.70;;
2061;SDS011;11070;51.336;12.340;2022-10-16T00:30:56;1.88;;;1.65;;
2061;SDS011;11070;51.336;12.340;2022-10-16T00:33:22;4.53;;;2.03;;
2061;SDS011;11070;51.336;12.340;2022-10-16T00:35:49;1.80;;;1.70;;
2061;SDS011;11070;51.336;12.340;2022-10-16T00:38:15;1.80;;;1.70;;
2061;SDS011;11070;51.336;12.340;2022-10-16T00:40:41;2.08;;;1.98;;
2061;SDS011;11070;51.336;12.340;2022-10-16T00:46:26;1.80;;;1.70;;
2061;SDS011;11070;51.336;12.340;2022-10-16T00:51:45;1.88;;;1.70;;
2061;SDS011;11070;51.336;12.340;2022-10-16T00:54:26;1.80;;;1.70;;
2061;SDS011;11070;51.336;12.340;2022-10-16T00:56:54;1.70;;;1.60;;
2061;SDS011;11070;51.336;12.340;2022-10-16T00:59:32;1.85;;;1.75;;
2061;SDS011;11070;51.336;12.340;2022-10-16T01:01:59;2.75;;;1.50;;
2061;SDS011;11070;51.336;12.340;2022-10-16T01:04:25;3.58;;;1.60;;
2061;SDS011;11070;51.336;12.340;2022-10-16T01:07:07;3.35;;;1.60;;
2061;SDS011;11070;51.336;12.340;2022-10-16T01:12:10;2.13;;;1.80;;
2061;SDS011;11070;51.336;12.340;2022-10-16T01:14:48;2.67;;;2.08;;
2061;SDS011;11070;51.336;12.340;2022-10-16T01:25:39;2.05;;;1.90;;
2061;SDS011;11070;51.336;12.340;2022-10-16T01:28:19;1.58;;;1.48;;
2061;SDS011;11070;51.336;12.340;2022-10-16T01:30:50;2.00;;;1.90;;
2061;SDS011;11070;51.336;12.340;2022-10-16T01:33:22;1.73;;;1.63;;
2061;SDS011;11070;51.336;12.340;2022-10-16T01:35:54;1.70;;;1.60;;
2061;SDS011;11070;51.336;12.340;2022-10-16T01:40:50;3.03;;;1.60;;
2061;SDS011;11070;51.336;12.340;2022-10-16T01:43:26;2.58;;;1.60;;
2061;SDS011;11070;51.336;12.340;2022-10-16T01:45:58;1.70;;;1.60;;
2061;SDS011;11070;51.336;12.340;2022-10-16T01:48:25;2.28;;;1.85;;
2061;SDS011;11070;51.336;12.340;2022-10-16T01:50:55;2.60;;;1.50;;
2061;SDS011;11070;51.336;12.340;2022-10-16T01:53:28;2.13;;;1.98;;
2061;SDS011;11070;51.336;12.340;2022-10-16T01:55:55;2.97;;;1.77;;
2061;SDS011;11070;51.336;12.340;2022-10-16T01:58:23;1.55;;;1.45;;
2061;SDS011;11070;51.336;12.340;2022-10-16T02:00:52;1.98;;;1.42;;
2061;SDS011;11070;51.336;12.340;2022-10-16T02:03:20;2.47;;;2.00;;
2061;SDS011;11070;51.336;12.340;2022-10-16T02:05:47;1.87;;;1.60;;
2061;SDS011;11070;51.336;12.340;2022-10-16T02:08:24;3.22;;;1.83;;
2061;SDS011;11070;51.336;12.340;2022-10-16T02:10:54;2.15;;;2.05;;
2061;SDS011;11070;51.336;12.340;2022-10-16T02:15:55;1.80;;;1.70;;
2061;SDS011;11070;51.336;12.340;2022-10-16T02:18:21;1.73;;;1.60;;
2061;SDS011;11070;51.336;12.340;2022-10-16T02:23:29;2.22;;;1.70;;
2061;SDS011;11070;51.336;12.340;2022-10-16T02:25:58;1.60;;;1.50;;
2061;SDS011;11070;51.336;12.340;2022-10-16T02:28:27;1.80;;;1.70;;
2061;SDS011;11070;51.336;12.340;2022-10-16T02:31:00;1.92;;;1.83;;
2061;SDS011;11070;51.336;12.340;2022-10-16T02:33:30;2.25;;;1.70;;
2061;SDS011;11070;51.336;12.340;2022-10-16T02:35:58;1.90;;;1.80;;
2061;SDS011;11070;51.336;12.340;2022-10-16T02:38:24;3.25;;;3.00;;
2061;SDS011;11070;51.336;12.340;2022-10-16T02:40:50;1.98;;;1.85;;
2061;SDS011;11070;51.336;12.340;2022-10-16T02:43:17;2.35;;;1.75;;
2061;SDS011;11070;51.336;12.340;2022-10-16T02:45:43;2.05;;;1.90;;
2061;SDS011;11070;51.336;12.340;2022-10-16T02:48:09;2.33;;;1.90;;
2061;SDS011;11070;51.336;12.340;2022-10-16T02:50:34;4.33;;;1.90;;
2061;SDS011;11070;51.336;12.340;2022-10-16T02:53:00;2.17;;;1.60;;
2061;SDS011;11070;51.336;12.340;2022-10-16T02:55:26;3.93;;;2.03;;
2061;SDS011;11070;51.336;12.340;2022-10-16T02:57:53;1.70;;;1.60;;
2061;SDS011;11070;51.336;12.340;2022-10-16T03:00:19;1.73;;;1.63;;
2061;SDS011;11070;51.336;12.340;2022-10-16T03:02:45;1.55;;;1.40;;
2061;SDS011;11070;51.336;12.340;2022-10-16T03:05:12;4.13;;;1.40;;
2061;SDS011;11070;51.336;12.340;2022-10-16T03:07:38;1.80;;;1.70;;
2061;SDS011;11070;51.336;12.340;2022-10-16T03:10:04;2.00;;;1.80;;
2061;SDS011;11070;51.336;12.340;2022-10-16T03:12:30;1.73;;;1.50;;
2061;SDS011;11070;51.336;12.340;2022-10-16T03:14:56;1.60;;;1.50;;
2061;SDS011;11070;51.336;12.340;2022-10-16T03:17:22;1.80;;;1.70;;
2061;SDS011;11070;51.336;12.340;2022-10-16T03:19:48;1.90;;;1.67;;
2061;SDS011;11070;51.336;12.340;2022-10-16T03:22:14;2.23;;;1.63;;
2061;SDS011;11070;51.336;12.340;2022-10-16T03:24:39;3.00;;;1.80;;
2061;SDS011;11070;51.336;12.340;2022-10-16T03:27:05;2.43;;;1.80;;
2061;SDS011;11070;51.336;12.340;2022-10-16T03:29:32;1.80;;;1.70;;
2061;SDS011;11070;51.336;12.340;2022-10-16T03:31:58;1.85;;;1.75;;
2061;SDS011;11070;51.336;12.340;2022-10-16T03:34:24;1.73;;;1.60;;
2061;SDS011;11070;51.336;12.340;2022-10-16T03:36:50;1.90;;;1.80;;
2061;SDS011;11070;51.336;12.340;2022-10-16T03:39:16;1.70;;;1.60;;
2061;SDS011;11070;51.336;12.340;2022-10-16T03:41:41;3.10;;;1.77;;
2061;SDS011;11070;51.336;12.340;2022-10-16T03:44:07;1.93;;;1.80;;
2061;SDS011;11070;51.336;12.340;2022-10-16T03:46:33;1.93;;;1.83;;
2061;SDS011;11070;51.336;12.340;2022-10-16T03:48:58;2.07;;;1.97;;
2061;SDS011;11070;51.336;12.340;2022-10-16T03:51:24;1.97;;;1.73;;
2061;SDS011;11070;51.336;12.340;2022-10-16T03:53:49;1.83;;;1.73;;
2061;SDS011;11070;51.336;12.340;2022-10-16T03:56:15;1.80;;;1.70;;
2061;SDS011;11070;51.336;12.340;2022-10-16T03:58:40;1.90;;;1.80;;
2061;SDS011;11070;51.336;12.340;2022-10-16T04:01:06;1.90;;;1.70;;
2061;SDS011;11070;51.336;12.340;2022-10-16T04:03:32;2.13;;;1.77;;
2061;SDS011;11070;51.336;12.340;2022-10-16T04:05:57;2.00;;;1.90;;
2061;SDS011;11070;51.336;12.340;2022-10-16T04:08:23;4.83;;;2.23;;
2061;SDS011;11070;51.336;12.340;2022-10-16T04:10:49;2.27;;;2.07;;
2061;SDS011;11070;51.336;12.340;2022-10-16T04:13:15;2.60;;;2.07;;
2061;SDS011;11070;51.336;12.340;2022-10-16T04:15:40;2.03;;;1.93;;
2061;SDS011;11070;51.336;12.340;2022-10-16T04:18:06;2.40;;;2.20;;
2061;SDS011;11070;51.336;12.340;2022-10-16T04:20:32;2.93;;;2.10;;
2061;SDS011;11070;51.336;12.340;2022-10-16T04:22:58;4.85;;;2.40;;
2061;SDS011;11070;51.336;12.340;2022-10-16T04:25:24;2.50;;;2.30;;
2061;SDS011;11070;51.336;12.340;2022-10-16T04:27:52;2.50;;;2.30;;
2061;SDS011;11070;51.336;12.340;2022-10-16T04:30:18;2.50;;;2.30;;
2061;SDS011;11070;51.336;12.340;2022-10-16T04:32:47;2.40;;;2.30;;
2061;SDS011;11070;51.336;12.340;2022-10-16T04:35:13;2.60;;;2.40;;
2061;SDS011;11070;51.336;12.340;2022-10-16T04:37:39;2.57;;;2.47;;
2061;SDS011;11070;51.336;12.340;2022-10-16T04:40:05;2.97;;;2.77;;
2061;SDS011;11070;51.336;12.340;2022-10-16T04:42:31;2.90;;;2.80;;
2061;SDS011;11070;51.336;12.340;2022-10-16T04:44:57;2.80;;;2.60;;
2061;SDS011;11070;51.336;12.340;2022-10-16T04:47:22;2.67;;;2.47;;
2061;SDS011;11070;51.336;12.340;2022-10-16T04:49:48;2.87;;;2.60;;
2061;SDS011;11070;51.336;12.340;2022-10-16T04:52:13;2.80;;;2.60;;
2061;SDS011;11070;51.336;12.340;2022-10-16T04:54:39;3.55;;;2.50;;
2061;SDS011;11070;51.336;12.340;2022-10-16T04:57:05;3.07;;;2.80;;
2061;SDS011;11070;51.336;12.340;2022-10-16T04:59:31;2.60;;;2.50;;
2061;SDS011;11070;51.336;12.340;2022-10-16T05:01:57;2.73;;;2.63;;
2061;SDS011;11070;51.336;12.340;2022-10-16T05:04:22;2.80;;;2.60;;
2061;SDS011;11070;51.336;12.340;2022-10-16T05:06:48;2.47;;;2.30;;
2061;SDS011;11070;51.336;12.340;2022-10-16T05:09:14;2.57;;;2.47;;
2061;SDS011;11070;51.336;12.340;2022-10-16T05:11:39;4.80;;;2.57;;
2061;SDS011;11070;51.336;12.340;2022-10-16T05:14:05;2.80;;;2.70;;
2061;SDS011;11070;51.336;12.340;2022-10-16T05:16:31;2.60;;;2.50;;
2061;SDS011;11070;51.336;12.340;2022-10-16T05:18:56;3.13;;;2.60;;
2061;SDS011;11070;51.336;12.340;2022-10-16T05:21:22;3.20;;;2.90;;
2061;SDS011;11070;51.336;12.340;2022-10-16T05:23:47;3.00;;;2.90;;
2061;SDS011;11070;51.336;12.340;2022-10-16T05:26:13;2.50;;;2.40;;
2061;SDS011;11070;51.336;12.340;2022-10-16T05:28:39;2.83;;;2.63;;
2061;SDS011;11070;51.336;12.340;2022-10-16T05:31:05;2.83;;;2.63;;
2061;SDS011;11070;51.336;12.340;2022-10-16T05:33:31;2.78;;;2.55;;
2061;SDS011;11070;51.336;12.340;2022-10-16T05:36:00;3.10;;;2.85;;
2061;SDS011;11070;51.336;12.340;2022-10-16T05:38:32;2.92;;;2.72;;
2061;SDS011;11070;51.336;12.340;2022-10-16T05:40:57;3.30;;;3.10;;
2061;SDS011;11070;51.336;12.340;2022-10-16T05:43:23;3.13;;;2.80;;
2061;SDS011;11070;51.336;12.340;2022-10-16T05:45:56;3.27;;;3.07;;
2061;SDS011;11070;51.336;12.340;2022-10-16T05:48:24;3.25;;;2.70;;
2061;SDS011;11070;51.336;12.340;2022-10-16T05:51:11;6.68;;;2.92;;
2061;SDS011;11070;51.336;12.340;2022-10-16T05:53:37;2.92;;;2.55;;
2061;SDS011;11070;51.336;12.340;2022-10-16T05:56:04;2.80;;;2.60;;
2061;SDS011;11070;51.336;12.340;2022-10-16T05:58:31;2.42;;;2.33;;
2061;SDS011;11070;51.336;12.340;2022-10-16T06:01:03;2.90;;;2.65;;
2061;SDS011;11070;51.336;12.340;2022-10-16T06:03:31;2.60;;;2.40;;
2061;SDS011;11070;51.336;12.340;2022-10-16T06:06:06;2.85;;;2.60;;
2061;SDS011;11070;51.336;12.340;2022-10-16T06:08:58;2.45;;;2.30;;
2061;SDS011;11070;51.336;12.340;2022-10-16T06:11:26;4.45;;;2.70;;
2061;SDS011;11070;51.336;12.340;2022-10-16T06:13:57;2.58;;;2.38;;
2061;SDS011;11070;51.336;12.340;2022-10-16T06:16:24;2.45;;;2.30;;
2061;SDS011;11070;51.336;12.340;2022-10-16T06:18:51;3.08;;;2.42;;
2061;SDS011;11070;51.336;12.340;2022-10-16T06:21:19;2.38;;;2.20;;
2061;SDS011;11070;51.336;12.340;2022-10-16T06:23:46;4.45;;;2.55;;
2061;SDS011;11070;51.336;12.340;2022-10-16T06:26:13;3.15;;;2.30;;
2061;SDS011;11070;51.336;12.340;2022-10-16T06:28:40;4.43;;;2.53;;
2061;SDS011;11070;51.336;12.340;2022-10-16T06:31:07;2.60;;;2.40;;
2061;SDS011;11070;51.336;12.340;2022-10-16T06:33:34;2.35;;;2.15;;
2061;SDS011;11070;51.336;12.340;2022-10-16T06:36:05;2.42;;;2.22;;
2061;SDS011;11070;51.336;12.340;2022-10-16T06:38:33;3.67;;;2.33;;
2061;SDS011;11070;51.336;12.340;2022-10-16T06:40:59;4.13;;;2.25;;
2061;SDS011;11070;51.336;12.340;2022-10-16T06:43:25;2.15;;;1.95;;
2061;SDS011;11070;51.336;12.340;2022-10-16T06:45:52;2.60;;;2.40;;
2061;SDS011;11070;51.336;12.340;2022-10-16T06:48:18;1.95;;;1.85;;
2061;SDS011;11070;51.336;12.340;2022-10-16T06:50:54;3.08;;;2.88;;
2061;SDS011;11070;51.336;12.340;2022-10-16T06:53:31;2.25;;;2.10;;
2061;SDS011;11070;51.336;12.340;2022-10-16T06:56:05;2.60;;;2.40;;
2061;SDS011;11070;51.336;12.340;2022-10-16T06:58:32;3.22;;;2.63;;
2061;SDS011;11070;51.336;12.340;2022-10-16T07:00:58;3.43;;;3.13;;
2061;SDS011;11070;51.336;12.340;2022-10-16T07:03:23;2.90;;;2.80;;
2061;SDS011;11070;51.336;12.340;2022-10-16T07:05:49;2.93;;;2.50;;
2061;SDS011;11070;51.336;12.340;2022-10-16T07:08:14;2.90;;;2.60;;
2061;SDS011;11070;51.336;12.340;2022-10-16T07:10:40;2.80;;;2.33;;
2061;SDS011;11070;51.336;12.340;2022-10-16T07:13:06;2.10;;;2.00;;
2061;SDS011;11070;51.336;12.340;2022-10-16T07:15:32;2.33;;;1.98;;
2061;SDS011;11070;51.336;12.340;2022-10-16T07:17:59;2.15;;;2.05;;
2061;SDS011;11070;51.336;12.340;2022-10-16T07:20:24;3.73;;;1.80;;
2061;SDS011;11070;51.336;12.340;2022-10-16T07:22:50;2.73;;;2.53;;
2061;SDS011;11070;51.336;12.340;2022-10-16T07:25:16;2.45;;;2.35;;
2061;SDS011;11070;51.336;12.340;2022-10-16T07:27:42;3.33;;;2.30;;
2061;SDS011;11070;51.336;12.340;2022-10-16T07:30:08;2.67;;;2.47;;
2061;SDS011;11070;51.336;12.340;2022-10-16T07:32:34;2.00;;;1.90;;
2061;SDS011;11070;51.336;12.340;2022-10-16T07:35:00;2.80;;;2.20;;
2061;SDS011;11070;51.336;12.340;2022-10-16T07:37:25;2.30;;;2.00;;
2061;SDS011;11070;51.336;12.340;2022-10-16T07:39:51;3.80;;;2.87;;
2061;SDS011;11070;51.336;12.340;2022-10-16T07:42:16;2.50;;;2.40;;
2061;SDS011;11070;51.336;12.340;2022-10-16T07:44:42;3.30;;;3.13;;
2061;SDS011;11070;51.336;12.340;2022-10-16T07:47:09;3.30;;;2.87;;
2061;SDS011;11070;51.336;12.340;2022-10-16T07:49:34;3.47;;;3.28;;
2061;SDS011;11070;51.336;12.340;2022-10-16T07:52:00;1.77;;;1.67;;
2061;SDS011;11070;51.336;12.340;2022-10-16T07:54:26;2.20;;;2.10;;
2061;SDS011;11070;51.336;12.340;2022-10-16T07:56:51;1.90;;;1.80;;
2061;SDS011;11070;51.336;12.340;2022-10-16T07:59:17;1.60;;;1.50;;
2061;SDS011;11070;51.336;12.340;2022-10-16T08:01:42;1.57;;;1.47;;
2061;SDS011;11070;51.336;12.340;2022-10-16T08:04:08;1.40;;;1.30;;
2061;SDS011;11070;51.336;12.340;2022-10-16T08:06:35;1.23;;;1.13;;
2061;SDS011;11070;51.336;12.340;2022-10-16T08:09:02;1.15;;;1.05;;
2061;SDS011;11070;51.336;12.340;2022-10-16T08:11:28;1.50;;;1.40;;
2061;SDS011;11070;51.336;12.340;2022-10-16T08:13:54;1.30;;;1.03;;
2061;SDS011;11070;51.336;12.340;2022-10-16T08:16:20;1.10;;;1.00;;
2061;SDS011;11070;51.336;12.340;2022-10-16T08:18:46;0.80;;;0.80;;
2061;SDS011;11070;51.336;12.340;2022-10-16T08:21:16;1.98;;;0.85;;
2061;SDS011;11070;51.336;12.340;2022-10-16T08:23:43;1.75;;;0.95;;
2061;SDS011;11070;51.336;12.340;2022-10-16T08:26:09;1.20;;;1.10;;
2061;SDS011;11070;51.336;12.340;2022-10-16T08:28:35;3.70;;;1.08;;
2061;SDS011;11070;51.336;12.340;2022-10-16T08:31:20;0.95;;;0.90;;
2061;SDS011;11070;51.336;12.340;2022-10-16T08:33:46;2.10;;;1.08;;
2061;SDS011;11070;51.336;12.340;2022-10-16T08:36:12;1.38;;;1.27;;
2061;SDS011;11070;51.336;12.340;2022-10-16T08:38:39;1.00;;;0.90;;
2061;SDS011;11070;51.336;12.340;2022-10-16T08:46:33;1.65;;;1.00;;
2061;SDS011;11070;51.336;12.340;2022-10-16T08:49:00;1.05;;;0.80;;
2061;SDS011;11070;51.336;12.340;2022-10-16T08:51:35;1.10;;;1.00;;
2061;SDS011;11070;51.336;12.340;2022-10-16T08:54:04;0.98;;;0.88;;
2061;SDS011;11070;51.336;12.340;2022-10-16T08:57:07;1.08;;;0.98;;
2061;SDS011;11070;51.336;12.340;2022-10-16T08:59:42;0.98;;;0.88;;
2061;SDS011;11070;51.336;12.340;2022-10-16T09:02:52;0.90;;;0.80;;
2061;SDS011;11070;51.336;12.340;2022-10-16T09:05:10;1.65;;;0.80;;
2061;SDS011;11070;51.336;12.340;2022-10-16T09:07:58;1.13;;;1.02;;
2061;SDS011;11070;51.336;12.340;2022-10-16T09:11:23;0.90;;;0.70;;
2061;SDS011;11070;51.336;12.340;2022-10-16T09:13:58;1.90;;;0.77;;
2061;SDS011;11070;51.336;12.340;2022-10-16T09:16:58;0.80;;;0.80;;
2061;SDS011;11070;51.336;12.340;2022-10-16T09:19:31;1.10;;;0.73;;
2061;SDS011;11070;51.336;12.340;2022-10-16T09:22:09;0.90;;;0.80;;
2061;SDS011;11070;51.336;12.340;2022-10-16T09:24:39;0.80;;;0.80;;
2061;SDS011;11070;51.336;12.340;2022-10-16T09:27:07;1.00;;;0.80;;
2061;SDS011;11070;51.336;12.340;2022-10-16T09:29:37;0.80;;;0.70;;
2061;SDS011;11070;51.336;12.340;2022-10-16T09:32:13;0.82;;;0.77;;
2061;SDS011;11070;51.336;12.340;2022-10-16T09:34:43;0.95;;;0.85;;
2061;SDS011;11070;51.336;12.340;2022-10-16T09:37:14;1.48;;;0.90;;
2061;SDS011;11070;51.336;12.340;2022-10-16T09:39:46;0.80;;;0.67;;
2061;SDS011;11070;51.336;12.340;2022-10-16T09:42:20;0.90;;;0.83;;
2061;SDS011;11070;51.336;12.340;2022-10-16T09:44:55;0.93;;;0.80;;
2061;SDS011;11070;51.336;12.340;2022-10-16T09:47:25;1.00;;;0.90;;
2061;SDS011;11070;51.336;12.340;2022-10-16T09:49:53;0.83;;;0.80;;
2061;SDS011;11070;51.336;12.340;2022-10-16T09:52:26;0.90;;;0.90;;
2061;SDS011;11070;51.336;12.340;2022-10-16T09:54:56;1.45;;;1.10;;
2061;SDS011;11070;51.336;12.340;2022-10-16T09:57:23;1.10;;;1.00;;
2061;SDS011;11070;51.336;12.340;2022-10-16T09:59:51;1.50;;;1.00;;
2061;SDS011;11070;51.336;12.340;2022-10-16T10:02:31;1.38;;;1.27;;
2061;SDS011;11070;51.336;12.340;2022-10-16T10:05:00;1.60;;;1.50;;
2061;SDS011;11070;51.336;12.340;2022-10-16T10:07:35;1.52;;;1.20;;
2061;SDS011;11070;51.336;12.340;2022-10-16T10:10:18;1.50;;;1.40;;
2061;SDS011;11070;51.336;12.340;2022-10-16T10:12:46;1.20;;;1.10;;
2061;SDS011;11070;51.336;12.340;2022-10-16T10:15:12;1.23;;;1.13;;
2061;SDS011;11070;51.336;12.340;2022-10-16T10:17:49;1.20;;;1.10;;
2061;SDS011;11070;51.336;12.340;2022-10-16T10:20:24;1.33;;;1.23;;
2061;SDS011;11070;51.336;12.340;2022-10-16T10:22:54;1.40;;;1.30;;
2061;SDS011;11070;51.336;12.340;2022-10-16T10:36:56;1.70;;;1.60;;
2061;SDS011;11070;51.336;12.340;2022-10-16T10:39:50;1.85;;;1.75;;
2061;SDS011;11070;51.336;12.340;2022-10-16T10:50:47;1.80;;;1.70;;
2061;SDS011;11070;51.336;12.340;2022-10-16T11:02:02;2.95;;;1.40;;
2061;SDS011;11070;51.336;12.340;2022-10-16T11:07:27;1.77;;;1.67;;
2061;SDS011;11070;51.336;12.340;2022-10-16T11:10:12;1.63;;;1.45;;
2061;SDS011;11070;51.336;12.340;2022-10-16T11:12:45;2.15;;;2.05;;
2061;SDS011;11070;51.336;12.340;2022-10-16T11:15:25;1.70;;;1.60;;
2061;SDS011;11070;51.336;12.340;2022-10-16T11:18:00;2.00;;;1.90;;
2061;SDS011;11070;51.336;12.340;2022-10-16T11:20:57;2.10;;;2.00;;
2061;SDS011;11070;51.336;12.340;2022-10-16T11:24:16;1.90;;;1.80;;
2061;SDS011;11070;51.336;12.340;2022-10-16T11:26:27;2.20;;;2.10;;
2061;SDS011;11070;51.336;12.340;2022-10-16T11:28:58;2.10;;;2.00;;
2061;SDS011;11070;51.336;12.340;2022-10-16T11:31:28;2.25;;;2.10;;
2061;SDS011;11070;51.336;12.340;2022-10-16T11:34:03;2.28;;;2.17;;
2061;SDS011;11070;51.336;12.340;2022-10-16T11:36:45;2.20;;;2.10;;
2061;SDS011;11070;51.336;12.340;2022-10-16T11:39:26;2.10;;;2.00;;
2061;SDS011;11070;51.336;12.340;2022-10-16T11:42:10;3.85;;;3.65;;
2061;SDS011;11070;51.336;12.340;2022-10-16T11:44:48;3.55;;;3.35;;
2061;SDS011;11070;51.336;12.340;2022-10-16T11:50:17;3.75;;;3.55;;
2061;SDS011;11070;51.336;12.340;2022-10-16T11:55:48;2.58;;;2.20;;
2061;SDS011;11070;51.336;12.340;2022-10-16T11:58:28;2.60;;;2.40;;
2061;SDS011;11070;51.336;12.340;2022-10-16T12:01:12;3.80;;;2.60;;
2061;SDS011;11070;51.336;12.340;2022-10-16T12:09:15;2.80;;;2.60;;
2061;SDS011;11070;51.336;12.340;2022-10-16T12:11:48;2.20;;;2.10;;
2061;SDS011;11070;51.336;12.340;2022-10-16T12:17:03;1.80;;;1.70;;
2061;SDS011;11070;51.336;12.340;2022-10-16T12:19:56;2.05;;;1.95;;
2061;SDS011;11070;51.336;12.340;2022-10-16T12:22:24;2.15;;;2.05;;
2061;SDS011;11070;51.336;12.340;2022-10-16T12:24:53;1.70;;;1.60;;
2061;SDS011;11070;51.336;12.340;2022-10-16T12:27:29;2.25;;;2.10;;
2061;SDS011;11070;51.336;12.340;2022-10-16T12:29:58;2.30;;;2.20;;
2061;SDS011;11070;51.336;12.340;2022-10-16T12:32:35;2.85;;;2.30;;
2061;SDS011;11070;51.336;12.340;2022-10-16T12:35:04;2.08;;;1.85;;
2061;SDS011;11070;51.336;12.340;2022-10-16T12:37:42;2.42;;;2.22;;
2061;SDS011;11070;51.336;12.340;2022-10-16T12:40:13;2.85;;;2.65;;
2061;SDS011;11070;51.336;12.340;2022-10-16T12:42:57;4.10;;;2.28;;
2061;SDS011;11070;51.336;12.340;2022-10-16T12:45:24;2.10;;;2.00;;
2061;SDS011;11070;51.336;12.340;2022-10-16T12:47:53;1.98;;;1.88;;
2061;SDS011;11070;51.336;12.340;2022-10-16T12:52:49;2.22;;;1.50;;
2061;SDS011;11070;51.336;12.340;2022-10-16T12:55:15;1.83;;;1.47;;
2061;SDS011;11070;51.336;12.340;2022-10-16T13:08:35;1.95;;;1.20;;
2061;SDS011;11070;51.336;12.340;2022-10-16T13:11:14;1.40;;;1.30;;
2061;SDS011;11070;51.336;12.340;2022-10-16T13:28:05;2.43;;;1.10;;
2061;SDS011;11070;51.336;12.340;2022-10-16T13:30:42;1.20;;;1.10;;
2061;SDS011;11070;51.336;12.340;2022-10-16T13:33:17;1.10;;;1.00;;
2061;SDS011;11070;51.336;12.340;2022-10-16T13:35:51;1.63;;;1.53;;
2061;SDS011;11070;51.336;12.340;2022-10-16T13:38:22;1.80;;;1.70;;
2061;SDS011;11070;51.336;12.340;2022-10-16T13:41:00;1.10;;;1.00;;
2061;SDS011;11070;51.336;12.340;2022-10-16T13:43:34;1.10;;;1.00;;
2061;SDS011;11070;51.336;12.340;2022-10-16T13:46:10;1.40;;;1.00;;
2061;SDS011;11070;51.336;12.340;2022-10-16T13:48:38;1.10;;;1.00;;
2061;SDS011;11070;51.336;12.340;2022-10-16T13:51:05;1.43;;;1.20;;
2061;SDS011;11070;51.336;12.340;2022-10-16T13:53:42;1.87;;;1.77;;
2061;SDS011;11070;51.336;12.340;2022-10-16T13:56:12;1.17;;;1.07;;
2061;SDS011;11070;51.336;12.340;2022-10-16T13:58:40;1.20;;;1.10;;
2061;SDS011;11070;51.336;12.340;2022-10-16T14:01:15;1.50;;;1.30;;
2061;SDS011;11070;51.336;12.340;2022-10-16T14:03:53;1.33;;;1.23;;
2061;SDS011;11070;51.336;12.340;2022-10-16T14:06:26;1.38;;;1.27;;
2061;SDS011;11070;51.336;12.340;2022-10-16T14:09:35;1.40;;;1.30;;
2061;SDS011;11070;51.336;12.340;2022-10-16T14:11:48;1.48;;;1.38;;
2061;SDS011;11070;51.336;12.340;2022-10-16T14:14:17;1.60;;;1.50;;
2061;SDS011;11070;51.336;12.340;2022-10-16T14:16:44;1.30;;;1.20;;
2061;SDS011;11070;51.336;12.340;2022-10-16T14:19:29;1.80;;;1.70;;
2061;SDS011;11070;51.336;12.340;2022-10-16T14:21:55;2.15;;;2.05;;
2061;SDS011;11070;51.336;12.340;2022-10-16T14:24:31;2.00;;;1.90;;
2061;SDS011;11070;51.336;12.340;2022-10-16T14:26:59;1.88;;;1.77;;
2061;SDS011;11070;51.336;12.340;2022-10-16T14:29:26;1.90;;;1.80;;
2061;SDS011;11070;51.336;12.340;2022-10-16T14:32:03;2.58;;;1.63;;
2061;SDS011;11070;51.336;12.340;2022-10-16T14:37:01;1.95;;;1.83;;
2061;SDS011;11070;51.336;12.340;2022-10-16T14:39:32;2.17;;;1.73;;
2061;SDS011;11070;51.336;12.340;2022-10-16T14:41:58;2.58;;;2.40;;
2061;SDS011;11070;51.336;12.340;2022-10-16T14:44:28;1.90;;;1.80;;
2061;SDS011;11070;51.336;12.340;2022-10-16T14:46:57;2.47;;;2.28;;
2061;SDS011;11070;51.336;12.340;2022-10-16T14:49:32;3.28;;;1.50;;
2061;SDS011;11070;51.336;12.340;2022-10-16T14:51:58;3.63;;;1.95;;
2061;SDS011;11070;51.336;12.340;2022-10-16T14:54:24;2.17;;;1.60;;
2061;SDS011;11070;51.336;12.340;2022-10-16T14:56:51;1.90;;;1.80;;
2061;SDS011;11070;51.336;12.340;2022-10-16T15:02:01;1.80;;;1.70;;
2061;SDS011;11070;51.336;12.340;2022-10-16T15:04:54;1.30;;;1.20;;
2061;SDS011;11070;51.336;12.340;2022-10-16T15:07:20;2.07;;;1.97;;
2061;SDS011;11070;51.336;12.340;2022-10-16T15:09:46;5.27;;;1.87;;
2061;SDS011;11070;51.336;12.340;2022-10-16T15:12:12;2.60;;;1.90;;
2061;SDS011;11070;51.336;12.340;2022-10-16T15:14:38;2.20;;;1.40;;
2061;SDS011;11070;51.336;12.340;2022-10-16T15:17:04;1.73;;;1.43;;
2061;SDS011;11070;51.336;12.340;2022-10-16T15:19:30;1.70;;;1.60;;
2061;SDS011;11070;51.336;12.340;2022-10-16T15:21:56;1.80;;;1.70;;
2061;SDS011;11070;51.336;12.340;2022-10-16T15:24:22;1.70;;;1.60;;
2061;SDS011;11070;51.336;12.340;2022-10-16T15:26:47;3.00;;;2.10;;
2061;SDS011;11070;51.336;12.340;2022-10-16T15:29:14;1.70;;;1.60;;
2061;SDS011;11070;51.336;12.340;2022-10-16T15:31:40;2.35;;;2.17;;
2061;SDS011;11070;51.336;12.340;2022-10-16T15:34:10;2.40;;;2.30;;
2061;SDS011;11070;51.336;12.340;2022-10-16T15:36:39;2.75;;;2.30;;
2061;SDS011;11070;51.336;12.340;2022-10-16T15:39:14;2.47;;;2.35;;
2061;SDS011;11070;51.336;12.340;2022-10-16T15:41:41;2.63;;;2.35;;
2061;SDS011;11070;51.336;12.340;2022-10-16T15:44:08;2.40;;;2.22;;
2061;SDS011;11070;51.336;12.340;2022-10-16T15:46:34;2.35;;;2.25;;
2061;SDS011;11070;51.336;12.340;2022-10-16T15:49:01;2.22;;;2.13;;
2061;SDS011;11070;51.336;12.340;2022-10-16T15:51:27;2.30;;;2.20;;
2061;SDS011;11070;51.336;12.340;2022-10-16T15:53:57;2.15;;;1.90;;
2061;SDS011;11070;51.336;12.340;2022-10-16T15:56:22;2.47;;;1.85;;
2061;SDS011;11070;51.336;12.340;2022-10-16T15:58:50;2.38;;;2.28;;
2061;SDS011;11070;51.336;12.340;2022-10-16T16:01:17;2.95;;;2.25;;
2061;SDS011;11070;51.336;12.340;2022-10-16T16:03:42;2.63;;;2.30;;
2061;SDS011;11070;51.336;12.340;2022-10-16T16:06:10;3.17;;;2.15;;
2061;SDS011;11070;51.336;12.340;2022-10-16T16:08:37;2.40;;;2.30;;
2061;SDS011;11070;51.336;12.340;2022-10-16T16:11:05;2.65;;;2.45;;
2061;SDS011;11070;51.336;12.340;2022-10-16T16:13:35;2.20;;;2.10;;
2061;SDS011;11070;51.336;12.340;2022-10-16T16:16:06;3.00;;;2.65;;
2061;SDS011;11070;51.336;12.340;2022-10-16T16:18:32;3.00;;;2.75;;
2061;SDS011;11070;51.336;12.340;2022-10-16T16:20:58;3.70;;;3.40;;
2061;SDS011;11070;51.336;12.340;2022-10-16T16:23:24;2.77;;;2.57;;
2061;SDS011;11070;51.336;12.340;2022-10-16T16:28:53;3.13;;;2.85;;
2061;SDS011;11070;51.336;12.340;2022-10-16T16:31:20;3.25;;;2.90;;
2061;SDS011;11070;51.336;12.340;2022-10-16T16:33:50;2.85;;;2.65;;
2061;SDS011;11070;51.336;12.340;2022-10-16T16:36:16;3.35;;;3.15;;
2061;SDS011;11070;51.336;12.340;2022-10-16T16:38:43;3.88;;;3.67;;
2061;SDS011;11070;51.336;12.340;2022-10-16T16:41:23;3.60;;;3.30;;
2061;SDS011;11070;51.336;12.340;2022-10-16T16:43:51;4.03;;;3.72;;
2061;SDS011;11070;51.336;12.340;2022-10-16T16:46:17;4.55;;;3.90;;
2061;SDS011;11070;51.336;12.340;2022-10-16T16:48:43;4.05;;;3.75;;
2061;SDS011;11070;51.336;12.340;2022-10-16T16:51:11;4.40;;;4.00;;
2061;SDS011;11070;51.336;12.340;2022-10-16T16:53:40;4.82;;;4.30;;
2061;SDS011;11070;51.336;12.340;2022-10-16T16:56:07;4.75;;;4.40;;
2061;SDS011;11070;51.336;12.340;2022-10-16T16:58:33;8.40;;;5.10;;